createdAt,value
2023-09-28T00:00:39.534Z,61.33
2023-09-28T00:01:42.622Z,61.45
2023-09-28T00:02:47.183Z,60.84
2023-09-28T00:03:50.723Z,61.04
2023-09-28T00:04:53.909Z,61.82
2023-09-28T00:05:56.778Z,61.63
2023-09-28T00:07:00.330Z,61.19
2023-09-28T00:08:04.033Z,61.06
2023-09-28T00:09:07.395Z,60.23
2023-09-28T00:10:15.169Z,61.62
2023-09-28T00:11:18.095Z,61.85
2023-09-28T00:12:21.064Z,61.91
2023-09-28T00:13:23.994Z,60.69
2023-09-28T00:14:28.029Z,61.03
2023-09-28T00:15:31.239Z,60.48
2023-09-28T00:16:34.125Z,60.83
2023-09-28T00:17:39.739Z,60.91
2023-09-28T00:18:43.037Z,61.12
2023-09-28T00:19:45.979Z,61.22
2023-09-28T00:20:49.297Z,61.38
2023-09-28T00:21:52.448Z,61.61
2023-09-28T00:22:58.124Z,61.27
2023-09-28T00:24:04.286Z,61.09
2023-09-28T00:25:12.271Z,61.10
2023-09-28T00:26:18.279Z,61.12
2023-09-28T00:27:21.570Z,61.65
2023-09-28T00:28:24.436Z,61.42
2023-09-28T00:29:27.536Z,61.36
2023-09-28T00:30:30.677Z,61.62
2023-09-28T00:31:33.503Z,61.52
2023-09-28T00:32:37.735Z,61.15
2023-09-28T00:33:40.973Z,61.26
2023-09-28T00:34:44.233Z,61.45
2023-09-28T00:35:47.333Z,61.57
2023-09-28T00:36:50.273Z,62.12
2023-09-28T00:37:53.778Z,61.29
2023-09-28T00:38:56.950Z,61.32
2023-09-28T00:40:00.324Z,61.68
2023-09-28T00:41:03.815Z,61.62
2023-09-28T00:42:06.919Z,61.82
2023-09-28T00:43:09.811Z,62.29
2023-09-28T00:44:13.327Z,61.34
2023-09-28T00:45:16.451Z,61.37
2023-09-28T00:46:19.887Z,61.72
2023-09-28T00:47:25.305Z,61.67
2023-09-28T00:48:29.107Z,61.22
2023-09-28T00:49:32.092Z,60.89
2023-09-28T00:50:35.371Z,61.17
2023-09-28T00:51:40.678Z,60.92
2023-09-28T00:52:50.433Z,61.10
2023-09-28T00:53:54.133Z,61.53
2023-09-28T00:54:58.138Z,61.45
2023-09-28T00:56:01.875Z,61.50
2023-09-28T00:57:07.405Z,61.41
2023-09-28T00:58:13.234Z,61.50
2023-09-28T00:59:16.478Z,61.30
2023-09-28T01:00:20.403Z,61.31
2023-09-28T01:01:27.603Z,61.66
2023-09-28T01:02:31.302Z,62.07
2023-09-28T01:03:36.572Z,62.17
2023-09-28T01:04:40.007Z,62.39
2023-09-28T01:05:43.639Z,61.55
2023-09-28T01:06:46.985Z,61.78
2023-09-28T01:07:50.403Z,61.98
2023-09-28T01:08:58.282Z,62.19
2023-09-28T01:10:02.078Z,61.94
2023-09-28T01:11:08.810Z,62.16
2023-09-28T01:12:14.029Z,62.00
2023-09-28T01:13:22.678Z,61.72
2023-09-28T01:14:26.612Z,62.08
2023-09-28T01:15:29.856Z,62.40
2023-09-28T01:16:32.807Z,61.84
2023-09-28T01:17:36.506Z,62.07
2023-09-28T01:18:39.741Z,61.98
2023-09-28T01:19:43.600Z,62.18
2023-09-28T01:20:48.763Z,62.35
2023-09-28T01:21:52.740Z,62.11
2023-09-28T01:22:56.404Z,62.18
2023-09-28T01:23:59.547Z,62.23
2023-09-28T01:25:05.169Z,62.70
2023-09-28T01:26:08.288Z,63.05
2023-09-28T01:27:12.325Z,63.05
2023-09-28T01:28:18.882Z,63.46
2023-09-28T01:29:21.932Z,63.21
2023-09-28T01:30:25.089Z,63.17
2023-09-28T01:31:29.077Z,63.32
2023-09-28T01:32:32.259Z,63.35
2023-09-28T01:33:35.618Z,63.45
2023-09-28T01:34:38.573Z,63.33
2023-09-28T01:35:42.335Z,63.20
2023-09-28T01:36:45.255Z,63.25
2023-09-28T01:37:48.174Z,62.76
2023-09-28T01:39:08.805Z,63.05
2023-09-28T01:40:14.816Z,63.75
2023-09-28T01:41:18.374Z,63.17
2023-09-28T01:42:21.796Z,62.39
2023-09-28T01:43:25.241Z,62.31
2023-09-28T01:44:28.615Z,62.85
2023-09-28T01:45:31.805Z,62.72
2023-09-28T01:46:35.595Z,63.16
2023-09-28T01:47:39.703Z,63.51
2023-09-28T01:48:42.901Z,63.59
2023-09-28T01:49:46.193Z,63.01
2023-09-28T01:50:49.636Z,62.90
2023-09-28T01:51:52.823Z,63.24
2023-09-28T01:52:56.091Z,63.21
2023-09-28T01:53:59.744Z,63.36
2023-09-28T01:55:03.201Z,63.59
2023-09-28T01:56:06.484Z,63.96
2023-09-28T01:57:09.736Z,63.63
2023-09-28T01:58:13.630Z,63.88
2023-09-28T01:59:17.018Z,63.76
2023-09-28T02:00:21.665Z,63.49
2023-09-28T02:01:33.245Z,63.47
2023-09-28T02:02:37.735Z,63.91
2023-09-28T02:03:41.047Z,64.14
2023-09-28T02:04:45.142Z,64.57
2023-09-28T02:05:50.154Z,63.94
2023-09-28T02:06:55.085Z,64.04
2023-09-28T02:07:58.337Z,64.50
2023-09-28T02:09:01.670Z,64.64
2023-09-28T02:10:06.175Z,64.40
2023-09-28T02:11:11.454Z,64.38
2023-09-28T02:12:15.034Z,64.77
2023-09-28T02:13:18.248Z,65.02
2023-09-28T02:14:21.754Z,64.97
2023-09-28T02:15:25.238Z,65.05
2023-09-28T02:16:28.592Z,65.29
2023-09-28T02:17:32.095Z,65.45
2023-09-28T02:18:35.338Z,65.29
2023-09-28T02:19:40.684Z,64.70
2023-09-28T02:20:45.830Z,64.09
2023-09-28T02:21:49.511Z,64.48
2023-09-28T02:22:55.785Z,64.18
2023-09-28T02:24:00.162Z,64.54
2023-09-28T02:25:04.042Z,64.64
2023-09-28T02:26:09.570Z,64.75
2023-09-28T02:27:12.673Z,65.24
2023-09-28T02:28:16.140Z,65.27
2023-09-28T02:29:19.303Z,65.69
2023-09-28T02:30:24.728Z,65.97
2023-09-28T02:31:30.023Z,65.43
2023-09-28T02:32:35.024Z,65.53
2023-09-28T02:33:38.376Z,65.49
2023-09-28T02:34:41.780Z,65.93
2023-09-28T02:35:45.125Z,66.39
2023-09-28T02:36:48.040Z,66.74
2023-09-28T02:37:53.119Z,67.04
2023-09-28T02:38:56.333Z,67.27
2023-09-28T02:39:59.558Z,67.51
2023-09-28T02:41:03.021Z,67.84
2023-09-28T02:42:09.286Z,68.43
2023-09-28T02:43:12.758Z,68.63
2023-09-28T02:44:15.878Z,68.78
2023-09-28T02:45:19.314Z,69.05
2023-09-28T02:46:22.706Z,68.89
2023-09-28T02:47:26.430Z,68.44
2023-09-28T02:48:29.438Z,69.00
2023-09-28T02:49:33.890Z,69.17
2023-09-28T02:50:36.930Z,69.16
2023-09-28T02:51:40.156Z,70.01
2023-09-28T02:52:48.317Z,70.46
2023-09-28T02:53:52.339Z,71.01
2023-09-28T02:54:56.081Z,71.39
2023-09-28T02:55:59.101Z,71.47
2023-09-28T02:57:02.279Z,71.18
2023-09-28T02:58:05.841Z,71.56
2023-09-28T02:59:09.763Z,72.02
2023-09-28T03:00:29.593Z,72.29
2023-09-28T03:01:32.899Z,72.44
2023-09-28T03:02:36.259Z,71.92
2023-09-28T03:03:39.885Z,72.83
2023-09-28T03:04:43.180Z,73.32
2023-09-28T03:05:46.339Z,72.64
2023-09-28T03:06:53.563Z,73.36
2023-09-28T03:07:56.979Z,74.41
2023-09-28T03:09:00.386Z,74.89
2023-09-28T03:10:06.626Z,74.28
2023-09-28T03:11:10.343Z,74.20
2023-09-28T03:12:13.684Z,74.20
2023-09-28T03:13:17.174Z,74.65
2023-09-28T03:14:20.668Z,74.65
2023-09-28T03:15:23.615Z,74.28
2023-09-28T03:16:27.007Z,74.33
2023-09-28T03:17:31.046Z,74.61
2023-09-28T03:18:34.458Z,74.11
2023-09-28T03:19:37.628Z,73.94
2023-09-28T03:20:46.210Z,73.91
2023-09-28T03:21:50.925Z,73.64
2023-09-28T03:22:53.969Z,73.58
2023-09-28T03:24:00.763Z,74.16
2023-09-28T03:25:08.081Z,74.14
2023-09-28T03:26:11.648Z,74.47
2023-09-28T03:27:15.121Z,73.85
2023-09-28T03:28:18.301Z,73.66
2023-09-28T03:29:21.579Z,74.14
2023-09-28T03:30:26.485Z,74.19
2023-09-28T03:31:31.682Z,73.93
2023-09-28T03:32:36.343Z,74.03
2023-09-28T03:33:39.434Z,73.86
2023-09-28T03:34:42.612Z,73.48
2023-09-28T03:35:45.772Z,73.98
2023-09-28T03:36:48.719Z,73.64
2023-09-28T03:37:56.701Z,74.38
2023-09-28T03:38:59.960Z,73.75
2023-09-28T03:40:11.383Z,73.74
2023-09-28T03:41:14.348Z,74.02
2023-09-28T03:42:17.513Z,73.38
2023-09-28T03:43:20.693Z,74.05
2023-09-28T03:44:23.708Z,74.37
2023-09-28T03:45:26.833Z,74.55
2023-09-28T03:46:29.827Z,75.04
2023-09-28T03:47:33.675Z,75.41
2023-09-28T03:48:37.306Z,75.29
2023-09-28T03:49:40.300Z,75.39
2023-09-28T03:50:44.623Z,75.61
2023-09-28T03:51:47.388Z,75.23
2023-09-28T03:52:51.040Z,74.81
2023-09-28T03:53:54.658Z,75.18
2023-09-28T03:54:58.265Z,75.11
2023-09-28T03:56:01.668Z,75.47
2023-09-28T03:57:04.992Z,76.08
2023-09-28T03:58:08.338Z,76.07
2023-09-28T03:59:11.717Z,75.59
2023-09-28T04:00:17.078Z,76.36
2023-09-28T04:01:20.183Z,76.02
2023-09-28T04:02:28.957Z,75.79
2023-09-28T04:03:31.965Z,76.25
2023-09-28T04:04:35.001Z,76.17
2023-09-28T04:05:38.309Z,76.28
2023-09-28T04:06:41.601Z,76.26
2023-09-28T04:07:44.981Z,76.63
2023-09-28T04:08:48.075Z,76.99
2023-09-28T04:09:51.348Z,77.21
2023-09-28T04:10:56.580Z,77.40
2023-09-28T04:12:00.401Z,77.51
2023-09-28T04:13:03.759Z,77.62
2023-09-28T04:14:09.528Z,76.87
2023-09-28T04:15:12.920Z,76.50
2023-09-28T04:16:16.174Z,77.29
2023-09-28T04:17:19.466Z,77.57
2023-09-28T04:18:22.926Z,77.50
2023-09-28T04:19:26.214Z,78.03
2023-09-28T04:20:29.556Z,78.35
2023-09-28T04:21:32.861Z,78.94
2023-09-28T04:22:36.336Z,78.95
2023-09-28T04:23:39.508Z,78.57
2023-09-28T04:24:42.713Z,78.89
2023-09-28T04:25:46.077Z,78.62
2023-09-28T04:26:49.014Z,78.81
2023-09-28T04:27:52.423Z,78.35
2023-09-28T04:28:56.204Z,77.47
2023-09-28T04:29:59.298Z,77.87
2023-09-28T04:31:02.462Z,77.67
2023-09-28T04:32:05.846Z,77.73
2023-09-28T04:33:09.215Z,77.48
2023-09-28T04:34:14.550Z,77.28
2023-09-28T04:35:17.877Z,77.72
2023-09-28T04:36:21.091Z,77.80
2023-09-28T04:37:24.991Z,77.69
2023-09-28T04:38:28.376Z,77.70
2023-09-28T04:39:31.660Z,77.83
2023-09-28T04:40:34.680Z,77.86
2023-09-28T04:41:39.262Z,78.53
2023-09-28T04:42:42.332Z,78.52
2023-09-28T04:43:45.586Z,79.02
2023-09-28T04:44:48.897Z,79.33
2023-09-28T04:45:52.113Z,79.33
2023-09-28T04:46:55.508Z,79.14
2023-09-28T04:47:58.941Z,79.22
2023-09-28T04:49:02.931Z,79.78
2023-09-28T04:50:06.536Z,79.48
2023-09-28T04:51:09.796Z,79.68
2023-09-28T04:52:13.430Z,79.55
2023-09-28T04:53:17.777Z,79.63
2023-09-28T04:54:21.624Z,79.92
2023-09-28T04:55:25.255Z,80.31
2023-09-28T04:56:28.269Z,80.72
2023-09-28T04:57:32.490Z,80.94
2023-09-28T04:58:35.825Z,81.44
2023-09-28T04:59:40.296Z,81.42
2023-09-28T05:00:43.646Z,81.25
2023-09-28T05:01:47.137Z,81.29
2023-09-28T05:02:50.072Z,81.89
2023-09-28T05:03:54.898Z,82.31
2023-09-28T05:04:58.084Z,82.82
2023-09-28T05:06:01.515Z,83.51
2023-09-28T05:07:05.833Z,83.90
2023-09-28T05:08:11.375Z,83.84
2023-09-28T05:09:14.836Z,84.17
2023-09-28T05:10:17.837Z,84.07
2023-09-28T05:11:21.025Z,84.14
2023-09-28T05:12:24.271Z,84.46
2023-09-28T05:13:33.853Z,84.44
2023-09-28T05:14:37.357Z,84.54
2023-09-28T05:15:40.586Z,83.72
2023-09-28T05:16:44.363Z,84.94
2023-09-28T05:17:47.270Z,86.14
2023-09-28T05:18:50.511Z,85.02
2023-09-28T05:19:53.428Z,84.83
2023-09-28T05:20:56.592Z,85.32
2023-09-28T05:22:00.037Z,85.34
2023-09-28T05:23:03.289Z,85.51
2023-09-28T05:24:06.676Z,85.66
2023-09-28T05:25:09.649Z,86.24
2023-09-28T05:26:12.923Z,86.14
2023-09-28T05:27:15.835Z,86.41
2023-09-28T05:28:18.934Z,87.83
2023-09-28T05:29:22.225Z,87.47
2023-09-28T05:30:25.389Z,87.97
2023-09-28T05:31:28.885Z,88.11
2023-09-28T05:32:32.643Z,88.01
2023-09-28T05:33:36.030Z,86.93
2023-09-28T05:34:39.190Z,86.56
2023-09-28T05:35:42.577Z,85.51
2023-09-28T05:36:46.151Z,86.19
2023-09-28T05:37:49.972Z,86.31
2023-09-28T05:38:53.246Z,87.54
2023-09-28T05:39:56.560Z,87.71
2023-09-28T05:40:59.725Z,87.61
2023-09-28T05:42:03.174Z,88.34
2023-09-28T05:43:06.329Z,88.98
2023-09-28T05:44:11.967Z,88.75
2023-09-28T05:45:17.153Z,88.58
2023-09-28T05:46:20.596Z,89.05
2023-09-28T05:47:23.982Z,89.73
2023-09-28T05:48:27.026Z,89.75
2023-09-28T05:49:31.254Z,89.95
2023-09-28T05:50:35.069Z,90.54
2023-09-28T05:51:38.333Z,90.92
2023-09-28T05:52:41.765Z,91.03
2023-09-28T05:53:50.713Z,91.59
2023-09-28T05:54:55.029Z,91.83
2023-09-28T05:55:58.294Z,92.55
2023-09-28T05:57:01.564Z,92.03
2023-09-28T05:58:04.983Z,92.19
2023-09-28T05:59:08.782Z,92.62
2023-09-28T06:00:12.927Z,92.63
2023-09-28T06:01:19.540Z,92.42
2023-09-28T06:02:24.339Z,92.29
2023-09-28T06:03:28.325Z,92.46
2023-09-28T06:04:31.569Z,92.78
2023-09-28T06:05:34.794Z,92.94
2023-09-28T06:06:37.748Z,93.05
2023-09-28T06:07:40.730Z,93.36
2023-09-28T06:08:45.498Z,93.42
2023-09-28T06:09:48.817Z,93.72
2023-09-28T06:11:06.595Z,94.22
2023-09-28T06:12:13.698Z,95.11
2023-09-28T06:13:17.269Z,95.12
2023-09-28T06:14:21.215Z,95.47
2023-09-28T06:15:24.595Z,96.08
2023-09-28T06:16:28.009Z,95.96
2023-09-28T06:17:31.939Z,95.24
2023-09-28T06:18:35.075Z,95.11
2023-09-28T06:19:51.546Z,94.34
2023-09-28T06:21:02.226Z,93.43
2023-09-28T06:22:10.020Z,92.91
2023-09-28T06:23:13.569Z,92.14
2023-09-28T06:24:16.557Z,92.29
2023-09-28T06:25:19.847Z,91.90
2023-09-28T06:26:39.081Z,91.08
2023-09-28T06:27:45.986Z,91.15
2023-09-28T06:28:48.924Z,90.65
2023-09-28T06:29:54.785Z,90.28
2023-09-28T06:31:00.515Z,89.15
2023-09-28T06:32:04.799Z,88.93
2023-09-28T06:33:07.704Z,87.74
2023-09-28T06:34:11.271Z,88.18
2023-09-28T06:35:14.501Z,87.58
2023-09-28T06:36:30.237Z,86.96
2023-09-28T06:37:44.440Z,85.45
2023-09-28T06:38:48.678Z,85.99
2023-09-28T06:39:51.990Z,85.87
2023-09-28T06:40:56.311Z,85.21
2023-09-28T06:42:12.436Z,84.57
2023-09-28T06:43:24.216Z,84.15
2023-09-28T06:44:28.283Z,83.24
2023-09-28T06:45:31.962Z,83.92
2023-09-28T06:46:35.559Z,84.48
2023-09-28T06:47:52.898Z,84.75
2023-09-28T06:49:00.892Z,84.58
2023-09-28T06:50:06.193Z,83.95
2023-09-28T06:51:09.483Z,84.08
2023-09-28T06:52:12.612Z,83.23
2023-09-28T06:53:17.949Z,81.72
2023-09-28T06:54:22.112Z,80.69
2023-09-28T06:55:25.504Z,80.28
2023-09-28T06:56:28.597Z,79.32
2023-09-28T06:57:31.945Z,79.89
2023-09-28T06:58:35.521Z,80.90
2023-09-28T06:59:38.999Z,80.94
2023-09-28T07:00:46.072Z,80.67
2023-09-28T07:01:49.126Z,80.38
2023-09-28T07:02:52.800Z,79.69
2023-09-28T07:03:56.063Z,78.95
2023-09-28T07:04:59.593Z,78.41
2023-09-28T07:06:02.984Z,78.13
2023-09-28T07:07:07.821Z,77.65
2023-09-28T07:08:13.940Z,77.28
2023-09-28T07:09:17.432Z,77.35
2023-09-28T07:10:20.658Z,77.40
2023-09-28T07:11:24.421Z,77.64
2023-09-28T07:12:27.610Z,78.12
2023-09-28T07:13:30.569Z,78.14
2023-09-28T07:14:33.894Z,78.21
2023-09-28T07:15:43.766Z,76.78
2023-09-28T07:16:46.781Z,75.62
2023-09-28T07:17:49.970Z,74.90
2023-09-28T07:18:53.493Z,76.38
2023-09-28T07:19:58.446Z,76.94
2023-09-28T07:21:01.963Z,75.55
2023-09-28T07:22:04.877Z,75.39
2023-09-28T07:23:08.753Z,75.55
2023-09-28T07:24:19.020Z,75.94
2023-09-28T07:25:22.730Z,74.05
2023-09-28T07:26:25.911Z,73.78
2023-09-28T07:27:32.955Z,73.55
2023-09-28T07:28:36.092Z,71.82
2023-09-28T07:29:39.648Z,71.62
2023-09-28T07:30:42.842Z,72.48
2023-09-28T07:31:46.115Z,73.73
2023-09-28T07:32:49.661Z,72.73
2023-09-28T07:33:53.006Z,72.56
2023-09-28T07:34:56.649Z,71.96
2023-09-28T07:35:59.992Z,72.58
2023-09-28T07:37:05.129Z,72.50
2023-09-28T07:38:08.359Z,71.39
2023-09-28T07:39:11.514Z,71.52
2023-09-28T07:40:19.284Z,70.92
2023-09-28T07:41:25.134Z,71.58
2023-09-28T07:42:28.769Z,71.88
2023-09-28T07:43:31.716Z,73.17
2023-09-28T07:44:34.884Z,72.49
2023-09-28T07:45:38.690Z,73.07
2023-09-28T07:46:43.079Z,73.23
2023-09-28T07:47:46.553Z,72.19
2023-09-28T07:48:49.839Z,69.16
2023-09-28T07:49:56.091Z,69.74
2023-09-28T07:50:59.697Z,69.96
2023-09-28T07:52:03.927Z,69.71
2023-09-28T07:53:07.822Z,70.26
2023-09-28T07:54:11.174Z,69.37
2023-09-28T07:55:14.968Z,69.85
2023-09-28T07:56:19.982Z,68.42
2023-09-28T07:57:23.675Z,67.79
2023-09-28T07:58:28.059Z,67.99
2023-09-28T07:59:33.362Z,68.56
2023-09-28T08:00:38.248Z,67.90
2023-09-28T08:01:42.843Z,67.78
2023-09-28T08:02:45.766Z,67.23
2023-09-28T08:03:49.100Z,65.82
2023-09-28T08:04:54.668Z,65.78
2023-09-28T08:05:58.208Z,66.10
2023-09-28T08:07:01.809Z,66.64
2023-09-28T08:08:14.546Z,65.68
2023-09-28T08:09:20.589Z,66.16
2023-09-28T08:10:24.189Z,66.35
2023-09-28T08:11:27.443Z,67.09
2023-09-28T08:12:30.870Z,63.01
2023-09-28T08:13:34.339Z,62.61
2023-09-28T08:14:38.113Z,62.82
2023-09-28T08:15:42.317Z,62.82
2023-09-28T08:16:50.222Z,62.20
2023-09-28T08:17:53.548Z,62.94
2023-09-28T08:18:56.864Z,62.87
2023-09-28T08:20:00.639Z,62.13
2023-09-28T08:21:10.503Z,61.59
2023-09-28T08:22:14.500Z,61.22
2023-09-28T08:23:18.061Z,62.23
2023-09-28T08:24:21.919Z,61.90
2023-09-28T08:25:25.578Z,61.59
2023-09-28T08:26:28.976Z,62.17
2023-09-28T08:27:33.171Z,61.49
2023-09-28T08:28:36.150Z,61.68
2023-09-28T08:29:39.500Z,61.62
2023-09-28T08:30:43.195Z,61.71
2023-09-28T08:31:46.250Z,61.50
2023-09-28T08:32:49.734Z,61.46
2023-09-28T08:33:53.877Z,59.74
2023-09-28T08:34:57.532Z,58.74
2023-09-28T08:36:00.824Z,58.70
2023-09-28T08:37:04.761Z,60.09
2023-09-28T08:38:08.000Z,59.62
2023-09-28T08:39:11.610Z,60.01
2023-09-28T08:40:14.682Z,59.60
2023-09-28T08:41:39.788Z,58.50
2023-09-28T08:42:47.592Z,58.30
2023-09-28T08:44:04.988Z,58.01
2023-09-28T08:45:10.497Z,58.31
2023-09-28T08:46:15.798Z,57.77
2023-09-28T08:47:19.911Z,57.81
2023-09-28T08:48:27.825Z,57.90
2023-09-28T08:49:30.838Z,57.27
2023-09-28T08:50:40.594Z,57.28
2023-09-28T08:51:45.814Z,58.33
2023-09-28T08:52:50.161Z,58.61
2023-09-28T08:53:54.657Z,58.28
2023-09-28T08:54:58.588Z,57.88
2023-09-28T08:56:02.372Z,56.88
2023-09-28T08:57:09.600Z,57.98
2023-09-28T08:58:14.297Z,58.39
2023-09-28T08:59:18.613Z,55.51
2023-09-28T09:00:25.184Z,56.06
2023-09-28T09:01:29.784Z,57.03
2023-09-28T09:02:33.172Z,54.90
2023-09-28T09:03:36.554Z,55.33
2023-09-28T09:04:40.110Z,56.09
2023-09-28T09:05:44.648Z,55.89
2023-09-28T09:06:48.818Z,54.69
2023-09-28T09:07:53.679Z,54.86
2023-09-28T09:09:02.714Z,53.34
2023-09-28T09:10:08.040Z,54.23
2023-09-28T09:11:15.723Z,53.89
2023-09-28T09:12:19.335Z,54.45
2023-09-28T09:13:23.410Z,54.28
2023-09-28T09:14:30.357Z,53.98
2023-09-28T09:15:34.514Z,54.21
2023-09-28T09:16:37.978Z,54.26
2023-09-28T09:17:41.442Z,54.52
2023-09-28T09:18:49.609Z,53.93
2023-09-28T09:19:56.160Z,54.50
2023-09-28T09:21:00.580Z,52.05
2023-09-28T09:22:08.490Z,51.69
2023-09-28T09:23:16.811Z,52.04
2023-09-28T09:24:20.397Z,52.85
2023-09-28T09:25:23.460Z,52.63
2023-09-28T09:26:27.819Z,52.51
2023-09-28T09:27:32.818Z,52.47
2023-09-28T09:28:36.225Z,52.88
2023-09-28T09:29:40.451Z,53.03
2023-09-28T09:30:43.430Z,50.59
2023-09-28T09:31:49.779Z,51.19
2023-09-28T09:32:53.272Z,51.17
2023-09-28T09:33:57.461Z,52.06
2023-09-28T09:35:01.537Z,53.03
2023-09-28T09:36:06.421Z,52.35
2023-09-28T09:37:12.884Z,50.75
2023-09-28T09:38:16.365Z,50.93
2023-09-28T09:39:28.183Z,50.81
2023-09-28T09:40:32.554Z,51.14
2023-09-28T09:41:46.290Z,51.20
2023-09-28T09:42:49.756Z,51.65
2023-09-28T09:43:53.475Z,52.70
2023-09-28T09:44:57.029Z,51.07
2023-09-28T09:46:00.481Z,51.65
2023-09-28T09:47:03.910Z,52.48
2023-09-28T09:48:08.365Z,50.68
2023-09-28T09:49:12.463Z,50.34
2023-09-28T09:50:17.888Z,50.37
2023-09-28T09:51:21.440Z,51.11
2023-09-28T09:52:27.584Z,51.53
2023-09-28T09:53:32.995Z,48.88
2023-09-28T09:54:38.259Z,48.77
2023-09-28T09:55:50.033Z,48.00
2023-09-28T09:56:57.983Z,47.15
2023-09-28T09:58:04.918Z,48.64
2023-09-28T09:59:09.429Z,49.33
2023-09-28T10:00:17.631Z,48.46
2023-09-28T10:01:21.566Z,49.30
2023-09-28T10:02:29.982Z,49.04
2023-09-28T10:03:33.966Z,49.72
2023-09-28T10:04:37.159Z,49.51
2023-09-28T10:05:41.698Z,49.89
2023-09-28T10:06:52.868Z,50.22
2023-09-28T10:07:58.908Z,47.66
2023-09-28T10:09:03.392Z,48.87
2023-09-28T10:10:07.602Z,49.22
2023-09-28T10:11:12.321Z,50.48
2023-09-28T10:12:16.686Z,50.62
2023-09-28T10:13:22.692Z,51.02
2023-09-28T10:14:27.519Z,50.02
2023-09-28T10:15:32.154Z,48.83
2023-09-28T10:16:39.725Z,48.23
2023-09-28T10:17:43.197Z,47.92
2023-09-28T10:18:48.684Z,48.63
2023-09-28T10:19:51.804Z,48.75
2023-09-28T10:20:55.091Z,48.65
2023-09-28T10:22:00.250Z,48.26
2023-09-28T10:23:14.862Z,48.42
2023-09-28T10:24:22.118Z,49.93
2023-09-28T10:25:25.361Z,49.82
2023-09-28T10:26:32.714Z,48.71
2023-09-28T10:27:38.009Z,48.90
2023-09-28T10:29:07.292Z,48.92
2023-09-28T10:30:21.370Z,46.00
2023-09-28T10:31:24.392Z,46.53
2023-09-28T10:32:31.604Z,46.89
2023-09-28T10:33:34.717Z,46.86
2023-09-28T10:34:38.375Z,46.52
2023-09-28T10:35:41.805Z,45.66
2023-09-28T10:36:45.232Z,46.05
2023-09-28T10:38:23.506Z,46.01
2023-09-28T10:39:26.777Z,45.33
2023-09-28T10:40:48.524Z,44.72
2023-09-28T10:41:53.844Z,44.44
2023-09-28T10:43:11.150Z,44.05
2023-09-28T10:44:19.660Z,43.03
2023-09-28T10:45:28.685Z,44.40
2023-09-28T10:46:31.924Z,44.40
2023-09-28T10:47:37.660Z,44.60
2023-09-28T10:48:47.155Z,45.75
2023-09-28T10:50:00.724Z,45.74
2023-09-28T10:51:10.097Z,46.16
2023-09-28T10:52:13.189Z,46.15
2023-09-28T10:53:16.572Z,44.55
2023-09-28T10:54:20.942Z,44.35
2023-09-28T10:55:24.232Z,44.59
2023-09-28T10:56:31.875Z,44.08
2023-09-28T10:57:40.934Z,43.01
2023-09-28T10:58:44.436Z,43.77
2023-09-28T10:59:49.500Z,43.99
2023-09-28T11:00:52.510Z,45.58
2023-09-28T11:01:55.799Z,45.30
2023-09-28T11:03:00.227Z,45.11
2023-09-28T11:04:05.509Z,44.94
2023-09-28T11:05:10.449Z,44.20
2023-09-28T11:06:14.540Z,44.55
2023-09-28T11:07:17.994Z,45.03
2023-09-28T11:08:23.474Z,45.08
2023-09-28T11:09:30.596Z,44.64
2023-09-28T11:10:33.881Z,44.10
2023-09-28T11:11:40.577Z,42.91
2023-09-28T11:12:44.119Z,39.78
2023-09-28T11:13:47.210Z,39.74
2023-09-28T11:14:50.706Z,39.62
2023-09-28T11:15:55.289Z,39.65
2023-09-28T11:16:58.981Z,39.79
2023-09-28T11:18:02.364Z,40.02
2023-09-28T11:19:06.013Z,38.97
2023-09-28T11:20:12.749Z,40.18
2023-09-28T11:21:17.358Z,40.75
2023-09-28T11:22:20.641Z,40.28
2023-09-28T11:23:24.650Z,39.56
2023-09-28T11:24:28.163Z,40.35
2023-09-28T11:25:44.681Z,40.46
2023-09-28T11:26:49.604Z,40.04
2023-09-28T11:27:52.992Z,38.66
2023-09-28T11:28:57.873Z,39.54
2023-09-28T11:30:03.892Z,39.92
2023-09-28T11:31:10.126Z,39.91
2023-09-28T11:32:13.699Z,40.16
2023-09-28T11:33:17.618Z,39.18
2023-09-28T11:34:37.264Z,37.24
2023-09-28T11:35:41.084Z,36.51
2023-09-28T11:36:44.524Z,36.36
2023-09-28T11:37:47.501Z,36.40
2023-09-28T11:38:54.005Z,37.41
2023-09-28T11:39:57.487Z,39.45
2023-09-28T11:41:04.511Z,39.94
2023-09-28T11:42:08.959Z,39.23
2023-09-28T11:43:13.158Z,40.27
2023-09-28T11:44:21.577Z,41.15
2023-09-28T11:45:35.070Z,38.87
2023-09-28T11:46:39.461Z,37.14
2023-09-28T11:47:42.829Z,37.91
2023-09-28T11:48:46.142Z,36.67
2023-09-28T11:49:50.257Z,37.33
2023-09-28T11:50:54.510Z,38.53
2023-09-28T11:51:58.276Z,39.61
2023-09-28T11:53:01.429Z,38.82
2023-09-28T11:54:14.105Z,39.80
2023-09-28T11:55:17.619Z,37.81
2023-09-28T11:56:20.976Z,38.52
2023-09-28T11:57:24.049Z,37.33
2023-09-28T11:58:27.398Z,37.30
2023-09-28T11:59:30.701Z,38.09
2023-09-28T12:00:33.969Z,37.99
2023-09-28T12:01:37.766Z,37.80
2023-09-28T12:02:41.122Z,37.70
2023-09-28T12:03:46.693Z,37.79
2023-09-28T12:04:50.094Z,37.89
2023-09-28T12:05:53.673Z,37.56
2023-09-28T12:06:56.731Z,37.70
2023-09-28T12:08:00.161Z,37.10
2023-09-28T12:09:03.984Z,36.62
2023-09-28T12:10:16.037Z,36.04
2023-09-28T12:11:19.092Z,36.62
2023-09-28T12:12:22.350Z,35.95
2023-09-28T12:13:27.928Z,37.22
2023-09-28T12:14:31.293Z,38.28
2023-09-28T12:15:35.140Z,37.28
2023-09-28T12:16:39.003Z,37.61
2023-09-28T12:17:43.466Z,37.66
2023-09-28T12:18:46.458Z,39.05
2023-09-28T12:19:49.883Z,38.64
2023-09-28T12:20:53.342Z,38.31
2023-09-28T12:21:56.537Z,38.03
2023-09-28T12:23:01.468Z,37.81
2023-09-28T12:24:07.512Z,37.50
2023-09-28T12:25:11.632Z,38.44
2023-09-28T12:26:14.914Z,38.24
2023-09-28T12:27:19.580Z,38.43
2023-09-28T12:28:25.738Z,37.59
2023-09-28T12:29:29.689Z,37.64
2023-09-28T12:30:33.429Z,38.82
2023-09-28T12:31:36.970Z,40.19
2023-09-28T12:32:40.358Z,39.36
2023-09-28T12:33:44.615Z,39.33
2023-09-28T12:34:50.509Z,39.26
2023-09-28T12:35:55.347Z,38.58
2023-09-28T12:36:58.880Z,39.25
2023-09-28T12:38:05.641Z,39.83
2023-09-28T12:39:11.901Z,41.17
2023-09-28T12:40:15.435Z,40.89
2023-09-28T12:41:19.549Z,38.38
2023-09-28T12:42:26.061Z,38.24
2023-09-28T12:43:29.432Z,38.74
2023-09-28T12:44:33.597Z,39.42
2023-09-28T12:45:37.604Z,38.45
2023-09-28T12:46:42.187Z,39.61
2023-09-28T12:47:45.709Z,38.94
2023-09-28T12:48:49.010Z,38.22
2023-09-28T12:49:52.542Z,38.02
2023-09-28T12:50:55.917Z,38.70
2023-09-28T12:51:59.012Z,38.82
2023-09-28T12:53:02.707Z,37.67
2023-09-28T12:54:07.520Z,37.72
2023-09-28T12:55:11.192Z,37.30
2023-09-28T12:56:18.098Z,37.65
2023-09-28T12:57:21.868Z,37.81
2023-09-28T12:58:26.506Z,38.28
2023-09-28T12:59:32.025Z,38.45
2023-09-28T13:00:36.342Z,38.23
2023-09-28T13:01:39.665Z,39.43
2023-09-28T13:02:44.901Z,39.42
2023-09-28T13:03:49.126Z,38.90
2023-09-28T13:04:54.340Z,39.75
2023-09-28T13:05:58.569Z,39.55
2023-09-28T13:07:02.274Z,39.94
2023-09-28T13:08:14.711Z,39.86
2023-09-28T13:09:18.222Z,39.77
2023-09-28T13:10:26.863Z,39.01
2023-09-28T13:11:30.079Z,39.19
2023-09-28T13:12:33.488Z,39.15
2023-09-28T13:13:39.065Z,38.52
2023-09-28T13:14:42.508Z,38.77
2023-09-28T13:15:45.398Z,38.60
2023-09-28T13:16:48.940Z,39.49
2023-09-28T13:17:57.676Z,40.14
2023-09-28T13:19:03.101Z,39.65
2023-09-28T13:20:10.557Z,39.64
2023-09-28T13:21:15.035Z,39.92
2023-09-28T13:22:19.271Z,38.88
2023-09-28T13:23:22.275Z,41.10
2023-09-28T13:24:28.319Z,40.70
2023-09-28T13:25:34.789Z,40.26
2023-09-28T13:26:39.870Z,38.88
2023-09-28T13:27:43.512Z,38.76
2023-09-28T13:28:47.173Z,38.88
2023-09-28T13:29:50.483Z,39.70
2023-09-28T13:30:55.444Z,40.11
2023-09-28T13:31:58.745Z,38.81
2023-09-28T13:33:02.276Z,39.48
2023-09-28T13:34:05.315Z,41.54
2023-09-28T13:35:12.553Z,41.23
2023-09-28T13:36:16.952Z,40.55
2023-09-28T13:37:20.204Z,41.16
2023-09-28T13:38:25.390Z,40.81
2023-09-28T13:39:29.056Z,40.66
2023-09-28T13:40:36.718Z,41.08
2023-09-28T13:41:40.581Z,39.10
2023-09-28T13:42:43.622Z,38.32
2023-09-28T13:43:46.794Z,39.42
2023-09-28T13:44:50.130Z,39.94
2023-09-28T13:45:53.078Z,39.09
2023-09-28T13:46:57.017Z,39.38
2023-09-28T13:48:00.634Z,39.04
2023-09-28T13:49:04.094Z,37.99
2023-09-28T13:50:11.966Z,38.53
2023-09-28T13:51:15.578Z,38.67
2023-09-28T13:52:18.633Z,38.71
2023-09-28T13:53:22.072Z,39.71